createdAt,value
2018-11-27T00:00:26.754Z,3.10
2018-11-27T00:02:59.095Z,3.00
2018-11-27T00:05:27.790Z,3.10
2018-11-27T00:07:56.242Z,3.10
2018-11-27T00:10:24.664Z,3.10
2018-11-27T00:12:53.190Z,3.00
2018-11-27T00:15:21.722Z,3.00
2018-11-27T00:17:50.141Z,3.00
2018-11-27T00:20:18.558Z,3.00
2018-11-27T00:22:46.950Z,3.00
2018-11-27T00:25:16.474Z,3.00
2018-11-27T00:27:44.882Z,3.00
2018-11-27T00:30:14.445Z,3.00
2018-11-27T00:32:42.839Z,3.00
2018-11-27T00:35:13.254Z,3.10
2018-11-27T00:37:41.658Z,3.00
2018-11-27T00:40:15.020Z,3.00
2018-11-27T00:42:43.477Z,3.00
2018-11-27T00:45:13.081Z,3.00
2018-11-27T00:47:42.022Z,3.00
2018-11-27T00:50:12.679Z,3.00
2018-11-27T00:52:41.094Z,3.00
2018-11-27T00:55:11.633Z,3.00
2018-11-27T00:57:40.697Z,3.00
2018-11-27T01:00:16.042Z,3.00
2018-11-27T01:02:44.497Z,3.00
2018-11-27T01:05:14.046Z,3.00
2018-11-27T01:07:42.468Z,3.00
2018-11-27T01:10:23.607Z,3.00
2018-11-27T01:12:52.113Z,3.00
2018-11-27T01:15:20.561Z,3.00
2018-11-27T01:17:52.094Z,2.90
2018-11-27T01:20:21.415Z,2.90
2018-11-27T01:22:49.824Z,2.90
2018-11-27T01:25:18.287Z,2.90
2018-11-27T01:27:46.749Z,2.90
2018-11-27T01:30:17.837Z,2.90
2018-11-27T01:32:46.350Z,2.90
2018-11-27T01:35:19.825Z,2.90
2018-11-27T01:37:49.034Z,2.90
2018-11-27T01:40:20.497Z,2.90
2018-11-27T01:42:49.934Z,2.90
2018-11-27T01:45:19.442Z,2.80
2018-11-27T01:47:48.066Z,2.80
2018-11-27T01:50:17.182Z,2.90
2018-11-27T01:52:45.673Z,2.90
2018-11-27T01:55:17.080Z,2.80
2018-11-27T01:57:45.585Z,2.90
2018-11-27T02:00:16.750Z,2.80
2018-11-27T02:02:45.181Z,2.80
2018-11-27T02:05:13.571Z,2.80
2018-11-27T02:07:41.997Z,2.80
2018-11-27T02:10:11.739Z,2.80
2018-11-27T02:12:41.127Z,2.80
2018-11-27T02:15:11.442Z,2.80
2018-11-27T02:17:39.907Z,2.90
2018-11-27T02:20:10.132Z,2.90
2018-11-27T02:22:38.601Z,2.80
2018-11-27T02:25:16.099Z,2.80
2018-11-27T02:27:44.560Z,2.80
2018-11-27T02:30:15.159Z,2.80
2018-11-27T02:32:43.641Z,2.80
2018-11-27T02:35:13.418Z,2.80
2018-11-27T02:37:41.854Z,2.80
2018-11-27T02:40:12.433Z,2.80
2018-11-27T02:42:41.002Z,2.80
2018-11-27T02:45:11.457Z,2.70
2018-11-27T02:47:40.172Z,2.80
2018-11-27T02:50:10.802Z,2.80
2018-11-27T02:52:39.246Z,2.80
2018-11-27T02:55:13.702Z,2.80
2018-11-27T02:57:42.182Z,2.80
2018-11-27T03:00:12.621Z,2.80
2018-11-27T03:02:41.142Z,2.80
2018-11-27T03:05:13.212Z,2.70
2018-11-27T03:07:41.724Z,2.80
2018-11-27T03:10:12.694Z,2.70
2018-11-27T03:12:41.114Z,2.60
2018-11-27T03:15:11.885Z,2.60
2018-11-27T03:17:40.310Z,2.60
2018-11-27T03:20:10.082Z,2.60
2018-11-27T03:22:38.726Z,2.60
2018-11-27T03:25:11.972Z,2.50
2018-11-27T03:27:40.378Z,2.50
2018-11-27T03:30:13.160Z,2.50
2018-11-27T03:32:41.821Z,2.60
2018-11-27T03:35:13.144Z,2.60
2018-11-27T03:37:41.630Z,2.60
2018-11-27T03:40:13.629Z,2.60
2018-11-27T03:42:42.042Z,2.50
2018-11-27T03:45:11.817Z,2.50
2018-11-27T03:47:40.241Z,2.50
2018-11-27T03:50:14.946Z,2.50
2018-11-27T03:52:43.365Z,2.50
2018-11-27T03:55:12.510Z,2.50
2018-11-27T03:57:40.948Z,2.50
2018-11-27T04:00:28.358Z,2.50
2018-11-27T04:03:01.607Z,2.60
2018-11-27T04:05:30.065Z,2.50
2018-11-27T04:07:58.518Z,2.50
2018-11-27T04:10:26.938Z,2.50
2018-11-27T04:12:55.360Z,2.50
2018-11-27T04:15:23.802Z,2.50
2018-11-27T04:17:52.198Z,2.50
2018-11-27T04:20:20.615Z,2.50
2018-11-27T04:22:49.042Z,2.50
2018-11-27T04:25:18.188Z,2.50
2018-11-27T04:27:47.103Z,2.50
2018-11-27T04:30:16.897Z,2.50
2018-11-27T04:32:45.498Z,2.50
2018-11-27T04:35:20.005Z,2.50
2018-11-27T04:37:48.559Z,2.50
2018-11-27T04:40:18.971Z,2.50
2018-11-27T04:42:47.422Z,2.50
2018-11-27T04:45:20.792Z,2.50
2018-11-27T04:47:49.203Z,2.50
2018-11-27T04:50:18.159Z,2.50
2018-11-27T04:52:46.610Z,2.40
2018-11-27T04:55:17.107Z,2.40
2018-11-27T04:57:46.522Z,2.40
2018-11-27T05:00:19.040Z,2.40
2018-11-27T05:02:47.579Z,2.30
2018-11-27T05:05:16.296Z,2.30
2018-11-27T05:07:44.742Z,2.30
2018-11-27T05:10:16.473Z,2.30
2018-11-27T05:12:44.983Z,2.30
2018-11-27T05:15:15.340Z,2.30
2018-11-27T05:17:47.962Z,2.30
2018-11-27T05:20:13.246Z,2.30
2018-11-27T05:22:41.730Z,2.30
2018-11-27T05:25:13.098Z,2.30
2018-11-27T05:27:43.679Z,2.30
2018-11-27T05:30:17.053Z,2.40
2018-11-27T05:32:45.554Z,2.30
2018-11-27T05:35:15.166Z,2.30
2018-11-27T05:37:44.766Z,2.30
2018-11-27T05:40:14.766Z,2.30
2018-11-27T05:42:43.315Z,2.20
2018-11-27T05:45:15.126Z,2.20
2018-11-27T05:47:43.664Z,2.20
2018-11-27T05:50:14.356Z,2.20
2018-11-27T05:52:42.850Z,2.20
2018-11-27T05:55:12.286Z,2.20
2018-11-27T05:57:41.142Z,2.20
2018-11-27T06:00:13.102Z,2.20
2018-11-27T06:02:41.569Z,2.20
2018-11-27T06:05:12.733Z,2.30
2018-11-27T06:07:41.201Z,2.30
2018-11-27T06:10:11.314Z,2.30
2018-11-27T06:12:39.798Z,2.30
2018-11-27T06:15:09.953Z,2.20
2018-11-27T06:17:38.430Z,2.30
2018-11-27T06:20:11.353Z,2.20
2018-11-27T06:22:39.944Z,2.20
2018-11-27T06:25:11.208Z,2.20
2018-11-27T06:27:39.722Z,2.20
2018-11-27T06:30:27.078Z,2.20
2018-11-27T06:32:55.522Z,2.20
2018-11-27T06:35:32.694Z,2.20
2018-11-27T06:38:01.152Z,2.20
2018-11-27T06:40:30.586Z,2.20
2018-11-27T06:42:59.038Z,2.20
2018-11-27T06:45:27.493Z,2.10
2018-11-27T06:47:55.950Z,2.10
2018-11-27T06:50:24.442Z,2.10
2018-11-27T06:52:52.911Z,2.10
2018-11-27T06:55:22.485Z,2.10
2018-11-27T06:57:50.985Z,2.10
2018-11-27T07:00:24.670Z,2.10
2018-11-27T07:02:53.374Z,2.20
2018-11-27T07:05:21.805Z,2.20
2018-11-27T07:07:50.304Z,2.10
2018-11-27T07:10:24.749Z,2.20
2018-11-27T07:12:54.761Z,2.10
2018-11-27T07:15:23.997Z,2.20
2018-11-27T07:17:52.425Z,2.20
2018-11-27T07:20:20.858Z,2.20
2018-11-27T07:22:49.271Z,2.20
2018-11-27T07:25:17.734Z,2.10
2018-11-27T07:27:48.206Z,2.10
2018-11-27T07:30:17.845Z,2.20
2018-11-27T07:32:46.302Z,2.20
2018-11-27T07:35:15.346Z,2.20
2018-11-27T07:37:43.787Z,2.20
2018-11-27T07:40:15.042Z,2.20
2018-11-27T07:42:43.486Z,2.20
2018-11-27T07:45:16.115Z,2.20
2018-11-27T07:47:44.575Z,2.20
2018-11-27T07:50:13.902Z,2.20
2018-11-27T07:52:42.405Z,2.20
2018-11-27T07:55:12.006Z,2.20
2018-11-27T07:57:40.543Z,2.20
2018-11-27T08:00:14.426Z,2.20
2018-11-27T08:02:43.742Z,2.20
2018-11-27T08:05:13.486Z,2.30
2018-11-27T08:07:42.965Z,2.20
2018-11-27T08:10:16.810Z,2.30
2018-11-27T08:12:45.302Z,2.20
2018-11-27T08:15:17.075Z,2.20
2018-11-27T08:17:45.506Z,2.20
2018-11-27T08:20:16.138Z,2.20
2018-11-27T08:22:44.570Z,2.20
2018-11-27T08:25:14.553Z,2.20
2018-11-27T08:27:43.055Z,2.20
2018-11-27T08:30:15.494Z,2.20
2018-11-27T08:32:44.019Z,2.10
2018-11-27T08:35:14.637Z,2.20
2018-11-27T08:37:43.301Z,2.10
2018-11-27T08:40:12.942Z,2.10
2018-11-27T08:42:41.390Z,2.10
2018-11-27T08:45:12.854Z,2.10
2018-11-27T08:47:41.358Z,2.10
2018-11-27T08:50:11.750Z,2.10
2018-11-27T08:52:40.222Z,2.10
2018-11-27T08:55:12.934Z,2.10
2018-11-27T08:57:42.749Z,2.10
2018-11-27T09:00:15.414Z,2.10
2018-11-27T09:02:43.934Z,2.10
2018-11-27T09:05:13.023Z,2.10
2018-11-27T09:07:41.725Z,2.10
2018-11-27T09:10:22.594Z,2.10
2018-11-27T09:12:51.103Z,2.10
2018-11-27T09:15:21.307Z,2.10
2018-11-27T09:17:52.214Z,2.10
2018-11-27T09:20:20.990Z,2.10
2018-11-27T09:22:49.210Z,2.10
2018-11-27T09:25:17.726Z,2.10
2018-11-27T09:27:46.198Z,2.10
2018-11-27T09:30:17.985Z,2.10
2018-11-27T09:32:46.529Z,2.10
2018-11-27T09:35:15.090Z,2.10
2018-11-27T09:37:43.556Z,2.20
2018-11-27T09:40:14.322Z,2.20
2018-11-27T09:42:42.835Z,2.20
2018-11-27T09:45:15.574Z,2.20
2018-11-27T09:47:44.755Z,2.20
2018-11-27T09:50:13.921Z,2.20
2018-11-27T09:52:42.434Z,2.30
2018-11-27T09:55:13.996Z,2.30
2018-11-27T09:57:42.466Z,2.30
2018-11-27T10:00:16.170Z,2.30
2018-11-27T10:02:44.617Z,2.30
2018-11-27T10:05:13.567Z,2.40
2018-11-27T10:07:42.050Z,2.40
2018-11-27T10:10:11.794Z,2.40
2018-11-27T10:12:40.273Z,2.40
2018-11-27T10:15:12.378Z,2.40
2018-11-27T10:17:40.901Z,2.40
2018-11-27T10:20:11.367Z,2.40
2018-11-27T10:22:39.833Z,2.40
2018-11-27T10:25:10.495Z,2.40
2018-11-27T10:27:39.071Z,2.40
2018-11-27T10:30:13.367Z,2.40
2018-11-27T10:32:41.806Z,2.40
2018-11-27T10:35:15.185Z,2.40
2018-11-27T10:37:43.606Z,2.50
2018-11-27T10:40:12.097Z,2.50
2018-11-27T10:42:40.585Z,2.50
2018-11-27T10:45:11.153Z,2.50
2018-11-27T10:47:39.566Z,2.50
2018-11-27T10:50:11.193Z,2.50
2018-11-27T10:52:40.985Z,2.60
2018-11-27T10:55:11.638Z,2.50
2018-11-27T10:57:40.201Z,2.50
2018-11-27T11:00:25.862Z,2.50
2018-11-27T11:03:01.117Z,2.50
2018-11-27T11:05:30.918Z,2.60
2018-11-27T11:07:59.409Z,2.50
2018-11-27T11:10:27.878Z,2.50
2018-11-27T11:12:56.339Z,2.50
2018-11-27T11:15:24.867Z,2.50
2018-11-27T11:17:53.367Z,2.60
2018-11-27T11:20:22.382Z,2.60
2018-11-27T11:22:50.825Z,2.60
2018-11-27T11:25:20.470Z,2.60
2018-11-27T11:27:52.357Z,2.60
2018-11-27T11:30:21.523Z,2.60
2018-11-27T11:32:50.026Z,2.70
2018-11-27T11:35:18.544Z,2.70
2018-11-27T11:37:47.033Z,2.70
2018-11-27T11:40:19.609Z,2.80
2018-11-27T11:42:48.713Z,2.80
2018-11-27T11:45:17.183Z,2.80
2018-11-27T11:47:45.655Z,2.80
2018-11-27T11:50:17.570Z,2.90
2018-11-27T11:52:50.325Z,2.80
2018-11-27T11:55:19.453Z,2.90
2018-11-27T11:57:47.870Z,2.90
2018-11-27T12:00:19.282Z,2.90
2018-11-27T12:02:47.780Z,2.90
2018-11-27T12:05:16.196Z,2.90
2018-11-27T12:07:44.626Z,2.90
2018-11-27T12:10:15.134Z,3.00
2018-11-27T12:12:44.551Z,3.00
2018-11-27T12:15:15.090Z,3.00
2018-11-27T12:17:44.065Z,3.00
2018-11-27T12:20:13.574Z,3.00
2018-11-27T12:22:43.385Z,3.00
2018-11-27T12:25:12.753Z,2.90
2018-11-27T12:27:41.274Z,3.00
2018-11-27T12:30:13.890Z,3.00
2018-11-27T12:32:42.378Z,3.00
2018-11-27T12:35:11.671Z,3.00
2018-11-27T12:37:40.163Z,3.00
2018-11-27T12:40:12.932Z,3.10
2018-11-27T12:42:41.375Z,3.00
2018-11-27T12:45:14.126Z,3.00
2018-11-27T12:47:42.606Z,3.00
2018-11-27T12:50:15.053Z,3.00
2018-11-27T12:52:43.585Z,3.00
2018-11-27T12:55:13.401Z,3.00
2018-11-27T12:57:41.930Z,3.00
2018-11-27T13:00:13.853Z,3.10
2018-11-27T13:02:42.319Z,3.10
2018-11-27T13:05:14.000Z,3.10
2018-11-27T13:07:42.626Z,3.20
2018-11-27T13:10:16.029Z,3.20
2018-11-27T13:12:45.235Z,3.30
2018-11-27T13:15:16.814Z,3.30
2018-11-27T13:17:45.682Z,3.30
2018-11-27T13:20:15.133Z,3.40
2018-11-27T13:22:43.675Z,3.30
2018-11-27T13:25:16.329Z,3.40
2018-11-27T13:27:44.826Z,3.40
2018-11-27T13:30:19.602Z,3.40
2018-11-27T13:32:49.841Z,3.40
2018-11-27T13:35:18.298Z,3.50
2018-11-27T13:37:46.728Z,3.50
2018-11-27T13:40:15.205Z,3.40
2018-11-27T13:42:43.689Z,3.40
2018-11-27T13:45:13.491Z,3.40
2018-11-27T13:47:42.368Z,3.50
2018-11-27T13:50:13.026Z,3.50
2018-11-27T13:52:41.493Z,3.50
2018-11-27T13:55:12.849Z,3.50
2018-11-27T13:57:41.285Z,3.50
2018-11-27T14:00:12.631Z,3.50
2018-11-27T14:02:41.746Z,3.40
2018-11-27T14:05:12.204Z,3.40
2018-11-27T14:07:40.637Z,3.40
2018-11-27T14:10:10.507Z,3.30
2018-11-27T14:12:38.917Z,3.30
2018-11-27T14:15:13.229Z,3.30
2018-11-27T14:17:41.646Z,3.30
2018-11-27T14:20:10.166Z,3.20
2018-11-27T14:22:38.759Z,3.20
2018-11-27T14:25:09.978Z,3.20
2018-11-27T14:27:38.487Z,3.20
2018-11-27T14:30:11.914Z,3.20
2018-11-27T14:32:40.395Z,3.20
2018-11-27T14:35:08.871Z,3.20
2018-11-27T14:37:37.295Z,3.10
2018-11-27T14:40:09.298Z,3.10
2018-11-27T14:42:37.735Z,3.10
2018-11-27T14:45:08.137Z,3.10
2018-11-27T14:47:36.551Z,3.10
2018-11-27T14:50:05.159Z,3.00
2018-11-27T14:52:33.589Z,3.00
2018-11-27T14:55:02.082Z,3.00
2018-11-27T14:57:30.557Z,2.90
2018-11-27T14:59:59.051Z,2.90
2018-11-27T15:02:27.501Z,2.80
2018-11-27T15:04:55.930Z,2.80
2018-11-27T15:07:24.389Z,2.80
2018-11-27T15:09:52.828Z,2.70
2018-11-27T15:12:21.284Z,2.70
2018-11-27T15:14:49.742Z,2.60
2018-11-27T15:17:18.205Z,2.70
2018-11-27T15:19:46.638Z,2.60
2018-11-27T15:22:15.089Z,2.60
2018-11-27T15:24:43.514Z,2.60
2018-11-27T15:27:11.988Z,2.60
2018-11-27T15:29:40.430Z,2.60
2018-11-27T15:32:08.878Z,2.60
2018-11-27T15:34:37.326Z,2.60
2018-11-27T15:37:06.632Z,2.50
2018-11-27T15:39:35.095Z,2.50
2018-11-27T15:42:03.607Z,2.50
2018-11-27T15:44:32.116Z,2.40
2018-11-27T15:47:00.559Z,2.40
2018-11-27T15:49:29.166Z,2.40
2018-11-27T15:51:57.615Z,2.40
2018-11-27T15:54:26.094Z,2.40
2018-11-27T15:56:54.546Z,2.40
2018-11-27T15:59:23.017Z,2.40
2018-11-27T16:01:51.458Z,2.30
2018-11-27T16:04:19.918Z,2.30
2018-11-27T16:06:48.337Z,2.30
2018-11-27T16:09:16.810Z,2.30
2018-11-27T16:11:45.238Z,2.30
2018-11-27T16:14:13.721Z,2.30
2018-11-27T16:16:42.182Z,2.30
2018-11-27T16:19:10.636Z,2.30
2018-11-27T16:21:39.081Z,2.30
2018-11-27T16:24:07.547Z,2.30
2018-11-27T16:26:35.986Z,2.30
2018-11-27T16:29:04.713Z,2.30
2018-11-27T16:31:33.144Z,2.30
2018-11-27T16:34:01.610Z,2.30
2018-11-27T16:36:30.046Z,2.30
2018-11-27T16:38:58.503Z,2.30
2018-11-27T16:41:26.964Z,2.30
2018-11-27T16:43:55.438Z,2.30
2018-11-27T16:46:23.958Z,2.30
2018-11-27T16:48:52.413Z,2.30
2018-11-27T16:51:20.850Z,2.30
2018-11-27T16:53:49.305Z,2.30
2018-11-27T16:56:17.758Z,2.30
2018-11-27T16:58:46.218Z,2.30
2018-11-27T17:01:14.670Z,2.20
2018-11-27T17:03:43.134Z,2.20
2018-11-27T17:06:11.590Z,2.20
2018-11-27T17:08:40.096Z,2.10
2018-11-27T17:11:08.551Z,2.20
2018-11-27T17:13:37.007Z,2.20
2018-11-27T17:16:05.856Z,2.10
2018-11-27T17:18:34.343Z,2.20
2018-11-27T17:21:02.827Z,2.20
2018-11-27T17:23:31.287Z,2.20
2018-11-27T17:26:03.954Z,2.20
2018-11-27T17:28:30.751Z,2.20
2018-11-27T17:31:07.082Z,2.20
2018-11-27T17:33:41.270Z,2.10
2018-11-27T17:36:10.340Z,2.10
2018-11-27T17:38:38.778Z,2.10
2018-11-27T17:41:08.058Z,2.10
2018-11-27T17:43:36.502Z,2.10
2018-11-27T17:46:05.698Z,2.10
2018-11-27T17:48:34.123Z,2.10
2018-11-27T17:51:02.590Z,2.10
2018-11-27T17:53:31.045Z,2.10
2018-11-27T17:55:59.502Z,2.10
2018-11-27T17:58:27.938Z,2.10
2018-11-27T18:00:56.393Z,2.00
2018-11-27T18:03:24.806Z,2.10
2018-11-27T18:05:53.262Z,2.00
2018-11-27T18:08:21.672Z,2.00
2018-11-27T18:10:50.126Z,2.00
2018-11-27T18:13:18.556Z,2.10
2018-11-27T18:15:46.972Z,2.00
2018-11-27T18:18:15.414Z,2.00
2018-11-27T18:20:43.838Z,2.00
2018-11-27T18:23:12.290Z,2.00
2018-11-27T18:25:40.726Z,2.00
2018-11-27T18:28:09.158Z,2.00
2018-11-27T18:30:37.621Z,1.90
2018-11-27T18:33:06.583Z,1.90
2018-11-27T18:35:35.018Z,1.90
2018-11-27T18:38:03.463Z,1.90
2018-11-27T18:40:31.891Z,1.90
2018-11-27T18:43:00.322Z,1.90
2018-11-27T18:45:30.118Z,1.90
2018-11-27T18:47:58.579Z,1.90
2018-11-27T18:50:29.306Z,1.90
2018-11-27T18:52:57.735Z,1.90
2018-11-27T18:55:26.173Z,1.90
2018-11-27T18:57:54.661Z,2.00
2018-11-27T19:00:24.248Z,2.00
2018-11-27T19:02:52.799Z,2.00
2018-11-27T19:05:21.261Z,2.00
2018-11-27T19:07:49.790Z,2.00
2018-11-27T19:10:23.297Z,2.00
2018-11-27T19:12:51.948Z,2.00
2018-11-27T19:15:24.551Z,2.00
2018-11-27T19:17:54.378Z,2.00
2018-11-27T19:20:22.842Z,2.00
2018-11-27T19:22:51.293Z,2.00
2018-11-27T19:25:19.770Z,2.00
2018-11-27T19:27:48.213Z,1.90
2018-11-27T19:30:17.832Z,1.90
2018-11-27T19:32:46.338Z,1.90
2018-11-27T19:35:15.911Z,1.90
2018-11-27T19:37:44.938Z,1.80
2018-11-27T19:40:14.758Z,1.80
2018-11-27T19:42:43.223Z,1.70
2018-11-27T19:45:13.835Z,1.80
2018-11-27T19:47:42.371Z,1.80
2018-11-27T19:50:11.905Z,1.80
2018-11-27T19:52:41.117Z,1.80
2018-11-27T19:55:11.250Z,1.80
2018-11-27T19:57:39.757Z,1.80
2018-11-27T20:00:13.831Z,1.80
2018-11-27T20:02:42.302Z,1.80
2018-11-27T20:05:12.050Z,1.80
2018-11-27T20:07:40.547Z,1.80
2018-11-27T20:10:10.722Z,1.80
2018-11-27T20:12:39.218Z,1.80
2018-11-27T20:15:11.134Z,1.80
2018-11-27T20:17:39.614Z,1.70
2018-11-27T20:20:09.862Z,1.80
2018-11-27T20:22:38.325Z,1.80
2018-11-27T20:25:08.602Z,1.80
2018-11-27T20:27:37.184Z,1.80
2018-11-27T20:30:11.234Z,1.70
2018-11-27T20:32:39.698Z,1.70
2018-11-27T20:35:10.174Z,1.70
2018-11-27T20:37:38.611Z,1.80
2018-11-27T20:40:10.030Z,1.80
2018-11-27T20:42:38.479Z,1.70
2018-11-27T20:45:09.366Z,1.70
2018-11-27T20:47:37.827Z,1.80
2018-11-27T20:50:12.143Z,1.80
2018-11-27T20:52:37.777Z,1.70
2018-11-27T20:55:07.486Z,1.70
2018-11-27T20:57:36.169Z,1.70
2018-11-27T21:00:11.695Z,1.70
2018-11-27T21:02:40.199Z,1.70
2018-11-27T21:05:09.375Z,1.80
2018-11-27T21:07:37.809Z,1.80
2018-11-27T21:10:11.606Z,1.80
2018-11-27T21:12:40.695Z,1.80
2018-11-27T21:15:12.113Z,1.80
2018-11-27T21:17:40.558Z,1.80
2018-11-27T21:20:11.066Z,1.80
2018-11-27T21:22:39.541Z,1.70
2018-11-27T21:25:13.261Z,1.70
2018-11-27T21:27:42.702Z,1.70
2018-11-27T21:30:16.210Z,1.70
2018-11-27T21:32:44.760Z,1.70
2018-11-27T21:35:15.954Z,1.70
2018-11-27T21:37:44.430Z,1.70
2018-11-27T21:40:14.056Z,1.60
2018-11-27T21:42:42.497Z,1.60
2018-11-27T21:45:18.210Z,1.60
2018-11-27T21:47:47.358Z,1.60
2018-11-27T21:50:17.057Z,1.60
2018-11-27T21:52:45.541Z,1.60
2018-11-27T21:55:14.777Z,1.60
2018-11-27T21:57:43.581Z,1.60
2018-11-27T22:00:14.062Z,1.60
2018-11-27T22:02:42.529Z,1.60
2018-11-27T22:05:11.348Z,1.60
2018-11-27T22:07:39.807Z,1.60
2018-11-27T22:10:10.669Z,1.60
2018-11-27T22:12:39.146Z,1.50
2018-11-27T22:15:11.414Z,1.50
2018-11-27T22:17:39.890Z,1.50
2018-11-27T22:20:10.841Z,1.40
2018-11-27T22:22:39.327Z,1.40
2018-11-27T22:25:09.054Z,1.40
2018-11-27T22:27:37.554Z,1.40
2018-11-27T22:30:16.386Z,1.40
2018-11-27T22:32:53.401Z,1.40
2018-11-27T22:35:21.898Z,1.40
2018-11-27T22:37:50.399Z,1.50
2018-11-27T22:40:20.079Z,1.50
2018-11-27T22:42:49.192Z,1.50
2018-11-27T22:45:35.735Z,1.50
2018-11-27T22:48:04.393Z,1.50
2018-11-27T22:50:32.855Z,1.50
2018-11-27T22:53:01.322Z,1.50
2018-11-27T22:55:29.749Z,1.50
2018-11-27T22:57:58.221Z,1.50
2018-11-27T23:00:34.209Z,1.50
2018-11-27T23:03:02.765Z,1.50
2018-11-27T23:05:31.214Z,1.50
2018-11-27T23:07:59.690Z,1.50
2018-11-27T23:10:29.622Z,1.40
2018-11-27T23:12:58.078Z,1.40
2018-11-27T23:15:26.551Z,1.40
2018-11-27T23:17:55.060Z,1.40
2018-11-27T23:20:23.502Z,1.40
2018-11-27T23:22:51.932Z,1.40
2018-11-27T23:25:20.401Z,1.40
2018-11-27T23:27:48.858Z,1.40
2018-11-27T23:30:18.699Z,1.30
2018-11-27T23:32:47.161Z,1.30
2018-11-27T23:35:15.677Z,1.30
2018-11-27T23:37:44.142Z,1.20
2018-11-27T23:40:14.886Z,1.20
2018-11-27T23:42:43.630Z,1.20
2018-11-27T23:45:13.046Z,1.20
2018-11-27T23:47:41.470Z,1.20
2018-11-27T23:50:11.909Z,1.20
2018-11-27T23:52:40.355Z,1.20
2018-11-27T23:55:09.889Z,1.20
2018-11-27T23:57:38.522Z,1.20
